Time;durP1;ratioP1;P1;durP2;ratioP2;P2;SDS_P1;SDS_P2;PMS_P1;PMS_P2;Temp;Humidity;BMP_temperature;BMP_pressure;BME280_temperature;BME280_humidity;BME280_pressure;Samples;Min_cycle;Max_cycle;Signal;HPM_P1;HPM_P2
2022/01/14 00:00:21;;;;;;;29.77;17.05;;;3.90;99.90;;;;;;2621981;46;20103;31
2022/01/14 00:02:59;;;;;;;25.35;14.35;;;3.90;99.90;;;;;;2603837;54;20026;31
2022/01/14 00:05:36;;;;;;;29.75;16.55;;;3.90;99.90;;;;;;2603545;54;20026;31
2022/01/14 00:08:15;;;;;;;32.80;17.60;;;3.90;99.90;;;;;;2603659;54;20538;31
2022/01/14 00:10:57;;;;;;;37.63;19.05;;;3.80;99.90;;;;;;2603364;54;20778;31
2022/01/14 00:13:52;;;;;;;28.88;15.52;;;3.80;99.90;;;;;;2622116;46;20026;31
2022/01/14 00:16:40;;;;;;;27.92;16.27;;;3.80;99.90;;;;;;2621782;46;20921;31
2022/01/14 00:19:16;;;;;;;29.67;16.48;;;3.80;99.90;;;;;;2701808;39;20482;31
2022/01/14 00:21:51;;;;;;;27.85;15.90;;;3.80;99.90;;;;;;2621494;46;20934;31
2022/01/14 00:31:38;;;;;;;28.77;16.52;;;3.80;99.90;;;;;;2603140;54;20637;31
2022/01/14 00:33:05;;;;;;;25.80;14.20;;;3.80;99.90;;;;;;2622182;46;20521;31
2022/01/14 00:35:45;;;;;;;28.70;15.07;;;3.80;99.90;;;;;;2603353;54;20775;31
2022/01/14 00:38:21;;;;;;;26.50;16.00;;;3.80;99.90;;;;;;2702157;39;20447;31
2022/01/14 00:40:57;;;;;;;28.27;16.33;;;3.80;99.90;;;;;;2621680;46;20955;31
2022/01/14 00:43:32;;;;;;;30.40;15.73;;;3.80;99.90;;;;;;2701957;39;20478;31
2022/01/14 00:48:47;;;;;;;29.13;15.63;;;3.80;99.90;;;;;;2603591;54;20090;31
2022/01/14 00:53:53;;;;;;;26.15;16.00;;;3.70;99.90;;;;;;2603519;54;20026;31
2022/01/14 00:56:32;;;;;;;29.27;15.27;;;3.70;99.90;;;;;;2621453;46;20033;31
2022/01/14 00:59:15;;;;;;;27.77;15.20;;;3.80;99.90;;;;;;2701233;39;20488;31
2022/01/14 01:01:58;;;;;;;26.55;16.08;;;3.70;99.90;;;;;;2603076;54;20907;31
2022/01/14 01:04:54;;;;;;;27.65;16.27;;;3.60;99.90;;;;;;2603349;54;20022;31
2022/01/14 01:07:38;;;;;;;27.75;15.45;;;3.70;99.90;;;;;;2603612;54;20027;31
2022/01/14 01:10:17;;;;;;;33.83;16.57;;;3.60;99.90;;;;;;2603216;54;20031;31
2022/01/14 01:13:01;;;;;;;26.20;18.10;;;3.60;99.90;;;;;;2603385;54;20078;31
2022/01/14 01:15:37;;;;;;;29.65;17.30;;;3.60;99.90;;;;;;2603282;54;20763;31
2022/01/14 01:18:13;;;;;;;33.67;17.63;;;3.60;99.90;;;;;;2603379;54;20030;31
2022/01/14 01:20:48;;;;;;;28.90;14.30;;;3.60;99.90;;;;;;2603283;54;20818;31
2022/01/14 01:23:25;;;;;;;30.40;17.50;;;3.60;99.90;;;;;;2621716;46;20056;31
2022/01/14 01:26:21;;;;;;;33.50;18.35;;;3.50;99.90;;;;;;2603288;54;20107;31
2022/01/14 01:29:07;;;;;;;28.90;16.92;;;3.60;99.90;;;;;;2621306;46;20857;31
2022/01/14 01:31:45;;;;;;;30.30;17.33;;;3.50;99.90;;;;;;2621762;46;20867;31
2022/01/14 01:34:20;;;;;;;35.90;18.97;;;3.50;99.90;;;;;;2602671;54;20250;31
2022/01/14 01:36:59;;;;;;;30.63;17.77;;;3.50;99.90;;;;;;2701727;39;20495;31
2022/01/14 01:39:34;;;;;;;35.05;18.55;;;3.40;99.90;;;;;;2603442;54;20026;31
2022/01/14 01:42:14;;;;;;;31.40;16.90;;;3.40;99.90;;;;;;2603238;54;20038;31
2022/01/14 01:44:50;;;;;;;35.08;18.55;;;3.50;99.90;;;;;;2701495;39;21487;31
2022/01/14 01:47:28;;;;;;;27.67;15.82;;;3.40;99.90;;;;;;2603058;54;21383;31
2022/01/14 01:50:10;;;;;;;36.20;19.63;;;3.40;99.90;;;;;;2701718;39;20417;31
2022/01/14 01:52:46;;;;;;;36.85;20.25;;;3.40;99.90;;;;;;2603120;54;20030;31
2022/01/14 01:58:01;;;;;;;39.33;20.63;;;3.40;99.90;;;;;;2603149;54;20027;31
2022/01/14 02:03:07;;;;;;;48.83;20.05;;;3.40;99.90;;;;;;2603296;54;20877;31
2022/01/14 02:05:46;;;;;;;35.03;19.30;;;3.40;99.90;;;;;;2602956;54;21374;31
2022/01/14 02:08:26;;;;;;;40.78;20.63;;;3.40;99.90;;;;;;2701760;39;20465;31
2022/01/14 02:11:02;;;;;;;33.30;17.90;;;3.40;99.90;;;;;;2603038;54;20036;31
2022/01/14 02:13:41;;;;;;;38.25;19.75;;;3.40;99.90;;;;;;2621850;46;20046;31
2022/01/14 02:16:32;;;;;;;37.33;20.10;;;3.40;99.90;;;;;;2603014;54;20573;31
2022/01/14 02:19:18;;;;;;;43.58;20.27;;;3.40;99.90;;;;;;2602899;54;20836;31
2022/01/14 02:22:11;;;;;;;40.63;19.97;;;3.40;99.90;;;;;;2622207;47;20922;31
2022/01/14 02:25:03;;;;;;;39.35;20.90;;;3.40;99.90;;;;;;2622294;46;21229;31
2022/01/14 02:27:41;;;;;;;35.90;19.23;;;3.40;99.90;;;;;;2603693;54;20565;31
2022/01/14 02:30:19;;;;;;;33.47;15.93;;;3.40;99.90;;;;;;2603840;54;20026;31
2022/01/14 02:32:56;;;;;;;37.30;21.05;;;3.40;99.90;;;;;;2622322;46;20026;31
2022/01/14 02:35:32;;;;;;;37.75;20.45;;;3.40;99.90;;;;;;2603900;54;19935;31
2022/01/14 02:38:12;;;;;;;37.78;21.13;;;3.30;99.90;;;;;;2603751;54;20116;31
2022/01/14 02:40:54;;;;;;;36.65;18.85;;;3.40;99.90;;;;;;2603611;54;20160;31
2022/01/14 02:43:28;;;;;;;37.55;19.60;;;3.40;99.90;;;;;;2622142;46;20030;31
2022/01/14 02:46:05;;;;;;;39.88;19.83;;;3.40;99.90;;;;;;2603579;54;20926;31
2022/01/14 02:48:41;;;;;;;37.38;19.42;;;3.40;99.90;;;;;;2603774;54;21463;31
2022/01/14 02:51:19;;;;;;;44.08;22.30;;;3.40;99.90;;;;;;2603802;54;20089;31
2022/01/14 02:54:12;;;;;;;43.10;22.40;;;3.40;99.90;;;;;;2603702;54;20910;31
2022/01/14 02:56:47;;;;;;;37.03;19.38;;;3.40;99.90;;;;;;2602943;54;20239;31
2022/01/14 02:59:27;;;;;;;38.70;19.23;;;3.40;99.90;;;;;;2603737;54;20959;31
2022/01/14 03:02:02;;;;;;;40.92;20.83;;;3.40;99.90;;;;;;2773569;31;20749;31
2022/01/14 03:04:39;;;;;;;35.17;19.00;;;3.40;99.90;;;;;;2702071;39;20489;31
2022/01/14 03:07:15;;;;;;;39.00;20.27;;;3.40;99.90;;;;;;2603656;54;20748;31
2022/01/14 03:09:54;;;;;;;34.05;19.13;;;3.40;99.90;;;;;;2622136;46;20576;31
2022/01/14 03:12:28;;;;;;;40.63;21.80;;;3.40;99.90;;;;;;2603034;54;20072;31
2022/01/14 03:15:11;;;;;;;30.40;15.95;;;3.40;99.90;;;;;;2603646;54;20908;31
2022/01/14 03:17:53;;;;;;;45.45;21.40;;;3.50;99.90;;;;;;2603565;54;20023;31
2022/01/14 03:20:45;;;;;;;39.85;19.08;;;3.40;99.90;;;;;;2622118;46;20062;31
2022/01/14 03:23:20;;;;;;;41.13;21.67;;;3.40;99.90;;;;;;2603776;54;20037;31
2022/01/14 03:26:01;;;;;;;36.25;19.15;;;3.40;99.90;;;;;;2618337;46;20037;31
2022/01/14 03:28:37;;;;;;;34.90;19.85;;;3.40;99.90;;;;;;2603866;54;20896;31
2022/01/14 03:31:12;;;;;;;39.58;20.48;;;3.50;99.90;;;;;;2603705;54;20050;31
2022/01/14 03:33:47;;;;;;;36.85;20.95;;;3.50;99.90;;;;;;2720540;39;20577;31
2022/01/14 03:36:22;;;;;;;36.95;21.40;;;3.50;99.90;;;;;;2603810;54;20861;31
2022/01/14 03:39:06;;;;;;;36.53;19.92;;;3.50;99.90;;;;;;2603792;54;20034;31
2022/01/14 03:41:46;;;;;;;35.47;21.50;;;3.40;99.90;;;;;;2603156;54;20883;31
2022/01/14 03:46:53;;;;;;;39.22;20.38;;;3.40;99.90;;;;;;2603706;54;20874;31
2022/01/14 03:49:28;;;;;;;42.27;20.47;;;3.40;99.90;;;;;;2603551;54;20864;31
2022/01/14 03:52:04;;;;;;;40.33;20.00;;;3.40;99.90;;;;;;2621291;46;20038;31
2022/01/14 03:54:38;;;;;;;42.63;22.15;;;3.40;99.90;;;;;;2602805;54;20040;31
2022/01/14 03:57:21;;;;;;;39.00;20.77;;;3.40;99.90;;;;;;2603684;54;20027;31
2022/01/14 03:59:58;;;;;;;37.80;20.70;;;3.40;99.90;;;;;;2603601;54;20838;31
2022/01/14 04:02:33;;;;;;;38.13;20.23;;;3.40;99.90;;;;;;2603292;54;20958;31
2022/01/14 04:05:10;;;;;;;38.00;20.57;;;3.40;99.90;;;;;;2603613;54;20030;31
2022/01/14 04:07:51;;;;;;;44.43;22.57;;;3.40;99.90;;;;;;2603284;54;20249;31
2022/01/14 04:10:27;;;;;;;39.25;20.85;;;3.40;99.90;;;;;;2602861;54;20025;31
2022/01/14 04:13:14;;;;;;;40.25;21.10;;;3.40;99.90;;;;;;2603708;54;20026;31
2022/01/14 04:15:48;;;;;;;36.75;20.10;;;3.40;99.90;;;;;;2621966;46;20030;31
2022/01/14 04:18:25;;;;;;;44.73;23.23;;;3.40;99.90;;;;;;2791829;31;20587;31
2022/01/14 04:21:03;;;;;;;43.65;21.35;;;3.40;99.90;;;;;;2603413;54;20072;31
2022/01/14 04:23:38;;;;;;;41.65;22.08;;;3.40;99.90;;;;;;2621683;46;20109;31
2022/01/14 04:26:15;;;;;;;40.07;21.07;;;3.50;99.90;;;;;;2603546;54;20038;31
2022/01/14 04:28:58;;;;;;;39.57;21.23;;;3.40;99.90;;;;;;2603557;54;20898;31
2022/01/14 04:31:33;;;;;;;47.00;24.05;;;3.40;99.90;;;;;;2603537;54;20253;31
2022/01/14 04:34:09;;;;;;;46.70;22.83;;;3.30;99.90;;;;;;2603569;54;20034;31
2022/01/14 04:36:48;;;;;;;46.92;23.90;;;3.30;99.90;;;;;;2603496;54;20026;31
2022/01/14 04:39:23;;;;;;;43.75;23.00;;;3.30;99.90;;;;;;2603485;54;20030;31
2022/01/14 04:42:01;;;;;;;45.45;24.55;;;3.30;99.90;;;;;;2603531;54;20090;31
2022/01/14 04:44:41;;;;;;;44.42;24.55;;;3.30;99.90;;;;;;2603121;54;20041;31
2022/01/14 04:47:18;;;;;;;45.85;24.25;;;3.30;99.90;;;;;;2602729;54;20815;31
2022/01/14 04:49:53;;;;;;;45.78;23.67;;;3.30;99.90;;;;;;2614857;46;20947;31
2022/01/14 04:52:30;;;;;;;44.15;22.92;;;3.30;99.90;;;;;;2602505;54;20057;31
2022/01/14 04:55:08;;;;;;;44.83;21.17;;;3.20;99.90;;;;;;2603187;54;20030;31
2022/01/14 04:57:43;;;;;;;50.45;23.65;;;3.20;99.90;;;;;;2602641;54;20034;31
2022/01/14 05:00:23;;;;;;;38.88;22.67;;;3.30;99.90;;;;;;2603476;54;20873;31
2022/01/14 05:03:01;;;;;;;42.58;20.70;;;3.20;99.90;;;;;;2702123;39;21010;31
2022/01/14 05:05:39;;;;;;;44.10;23.00;;;3.20;99.90;;;;;;2603339;54;20053;31
2022/01/14 05:08:20;;;;;;;41.70;23.17;;;3.20;99.90;;;;;;2603474;54;20046;31
2022/01/14 05:11:21;;;;;;;39.40;21.47;;;3.20;99.90;;;;;;2603088;54;20947;31
2022/01/14 05:13:58;;;;;;;45.75;22.65;;;3.20;99.90;;;;;;2603230;54;20082;31
2022/01/14 05:16:40;;;;;;;47.90;25.38;;;3.10;99.90;;;;;;2603154;54;20148;31
2022/01/14 05:19:17;;;;;;;46.40;22.85;;;3.10;99.90;;;;;;2603542;54;20053;31
2022/01/14 05:21:53;;;;;;;45.30;23.30;;;3.20;99.90;;;;;;2622073;46;20853;31
2022/01/14 05:24:29;;;;;;;45.17;23.33;;;3.10;99.90;;;;;;2603396;54;20050;31
2022/01/14 05:29:38;;;;;;;36.83;19.58;;;3.10;99.90;;;;;;2602642;54;20918;31
2022/01/14 05:34:46;;;;;;;45.13;24.33;;;3.20;99.90;;;;;;2603421;54;20109;31
2022/01/14 05:37:26;;;;;;;47.90;24.13;;;3.20;99.90;;;;;;2603008;54;20027;31
2022/01/14 05:40:01;;;;;;;46.40;23.05;;;3.20;99.90;;;;;;2621230;46;20245;31
2022/01/14 05:42:42;;;;;;;40.75;22.80;;;3.20;99.90;;;;;;2603479;54;20057;31
2022/01/14 05:45:19;;;;;;;42.53;20.63;;;3.20;99.90;;;;;;2621469;46;21349;31
2022/01/14 05:47:55;;;;;;;43.03;23.30;;;3.20;99.90;;;;;;2602367;54;20053;31
2022/01/14 05:50:34;;;;;;;42.75;21.10;;;3.20;99.90;;;;;;2602964;54;20869;31
2022/01/14 05:53:11;;;;;;;43.10;22.30;;;3.20;99.90;;;;;;2603362;54;20027;31
2022/01/14 05:55:46;;;;;;;44.97;22.70;;;3.20;99.90;;;;;;2602992;54;20056;31
2022/01/14 05:58:25;;;;;;;52.53;26.10;;;3.20;99.90;;;;;;2602560;54;20903;31
2022/01/14 06:01:01;;;;;;;53.22;23.88;;;3.20;99.90;;;;;;2613233;46;20030;31
2022/01/14 06:03:38;;;;;;;44.33;22.97;;;3.20;99.90;;;;;;2603069;54;20822;31
2022/01/14 06:06:17;;;;;;;42.30;22.30;;;3.20;99.90;;;;;;2603150;54;21098;31
2022/01/14 06:08:51;;;;;;;45.92;21.58;;;3.20;99.90;;;;;;2603167;54;19942;31
2022/01/14 06:11:29;;;;;;;40.35;21.35;;;3.20;99.90;;;;;;2621269;46;20871;31
2022/01/14 06:14:04;;;;;;;48.95;22.70;;;3.10;99.90;;;;;;2602255;54;20929;31
2022/01/14 06:16:39;;;;;;;48.33;23.35;;;3.10;99.90;;;;;;2602337;54;20030;31
2022/01/14 06:19:16;;;;;;;46.92;23.38;;;3.10;99.90;;;;;;2603317;54;20109;31
2022/01/14 06:21:51;;;;;;;39.45;21.35;;;3.10;99.90;;;;;;2621494;47;20542;31
2022/01/14 06:24:30;;;;;;;41.67;20.43;;;3.10;99.90;;;;;;2603036;54;20030;31
2022/01/14 06:27:07;;;;;;;42.60;22.10;;;3.10;99.90;;;;;;2603096;54;20026;31
2022/01/14 06:29:42;;;;;;;44.70;22.60;;;3.10;99.90;;;;;;2603162;54;20116;31
2022/01/14 06:32:17;;;;;;;44.37;22.33;;;3.10;99.90;;;;;;2620756;47;20026;31
2022/01/14 06:34:51;;;;;;;36.40;18.63;;;3.10;99.90;;;;;;2603023;54;20836;31
2022/01/14 06:37:26;;;;;;;40.00;22.45;;;3.10;99.90;;;;;;2602745;54;20868;31
2022/01/14 06:40:05;;;;;;;45.05;22.35;;;3.10;99.90;;;;;;2602293;54;20581;31
2022/01/14 06:42:41;;;;;;;42.47;22.17;;;3.10;99.90;;;;;;2603075;54;20089;31
2022/01/14 06:45:18;;;;;;;47.30;22.60;;;3.10;99.90;;;;;;2603131;54;20026;31
2022/01/14 06:47:56;;;;;;;45.80;23.30;;;3.10;99.90;;;;;;2602764;54;22511;31
2022/01/14 06:50:32;;;;;;;45.60;22.63;;;3.10;99.90;;;;;;2603170;54;20246;31
2022/01/14 06:53:06;;;;;;;44.55;23.00;;;3.10;99.90;;;;;;2602945;54;20057;31
2022/01/14 06:55:43;;;;;;;45.55;22.85;;;3.10;99.90;;;;;;2602810;54;20026;31
2022/01/14 06:58:18;;;;;;;47.25;23.08;;;3.10;99.90;;;;;;2602988;54;20889;31
2022/01/14 07:00:53;;;;;;;43.60;21.70;;;3.10;99.90;;;;;;2772865;31;20621;31
2022/01/14 07:03:31;;;;;;;44.97;22.43;;;3.20;99.90;;;;;;2602915;54;20857;31
2022/01/14 07:06:06;;;;;;;44.30;21.93;;;3.10;99.90;;;;;;2603045;54;21148;31
2022/01/14 07:08:43;;;;;;;46.05;23.30;;;3.10;99.90;;;;;;2603590;54;20052;31
2022/01/14 07:11:25;;;;;;;44.28;22.13;;;3.10;99.90;;;;;;2603498;54;20052;31
2022/01/14 07:13:59;;;;;;;47.20;23.65;;;3.10;99.90;;;;;;2603634;54;20042;31
2022/01/14 07:16:34;;;;;;;45.35;21.60;;;3.10;99.90;;;;;;2621990;46;20049;31
2022/01/14 07:19:09;;;;;;;39.30;20.95;;;3.20;99.90;;;;;;2622332;46;20038;31
2022/01/14 07:21:45;;;;;;;43.22;21.30;;;3.20;99.90;;;;;;2622336;46;20049;31
2022/01/14 07:24:22;;;;;;;43.13;20.90;;;3.20;99.90;;;;;;2603636;54;20772;31
2022/01/14 07:26:57;;;;;;;45.45;21.35;;;3.20;99.90;;;;;;2622042;46;20022;31
2022/01/14 07:29:35;;;;;;;45.67;22.17;;;3.20;99.90;;;;;;2603795;54;20579;31
2022/01/14 07:32:12;;;;;;;39.38;20.65;;;3.20;99.90;;;;;;2603677;54;20026;31
2022/01/14 07:34:48;;;;;;;42.50;21.88;;;3.20;99.90;;;;;;2603605;54;20871;31
2022/01/14 07:37:26;;;;;;;41.27;20.17;;;3.20;99.90;;;;;;2603117;54;20839;31
2022/01/14 07:40:03;;;;;;;40.97;19.42;;;3.20;99.90;;;;;;2602676;54;21002;31
2022/01/14 07:42:38;;;;;;;47.70;22.30;;;3.20;99.90;;;;;;2603613;54;20089;31
2022/01/14 07:45:20;;;;;;;42.13;20.80;;;3.20;99.90;;;;;;2603476;54;20754;31
2022/01/14 07:47:58;;;;;;;44.00;22.40;;;3.20;99.90;;;;;;2622069;46;20910;31
2022/01/14 07:50:35;;;;;;;43.10;22.15;;;3.20;99.90;;;;;;2603628;54;20031;31
2022/01/14 07:53:10;;;;;;;42.10;19.98;;;3.20;99.90;;;;;;2603463;54;20085;31
2022/01/14 07:55:46;;;;;;;41.45;20.40;;;3.20;99.90;;;;;;2603713;54;20825;31
2022/01/14 07:58:22;;;;;;;37.58;20.85;;;3.20;99.90;;;;;;2603501;54;20839;31
2022/01/14 08:01:03;;;;;;;42.97;21.55;;;3.20;99.90;;;;;;2603674;54;20027;31
2022/01/14 08:03:38;;;;;;;40.20;21.67;;;3.30;99.90;;;;;;2621874;46;20035;31
2022/01/14 08:06:22;;;;;;;39.70;21.13;;;3.30;99.90;;;;;;2603661;54;20027;31
2022/01/14 08:08:57;;;;;;;41.77;21.50;;;3.30;99.90;;;;;;2621782;46;20242;31
2022/01/14 08:11:38;;;;;;;40.90;21.80;;;3.20;99.90;;;;;;2603586;54;20033;31
2022/01/14 08:14:13;;;;;;;39.35;21.77;;;3.30;99.90;;;;;;2603570;54;20046;31
2022/01/14 08:16:52;;;;;;;43.30;20.87;;;3.30;99.90;;;;;;2603440;54;20082;31
2022/01/14 08:19:32;;;;;;;46.95;23.77;;;3.30;99.90;;;;;;2602645;54;20231;31
2022/01/14 08:22:10;;;;;;;41.80;20.13;;;3.30;99.90;;;;;;2603422;54;20927;31
2022/01/14 08:24:45;;;;;;;41.45;20.73;;;3.30;99.90;;;;;;2603476;54;20038;31
2022/01/14 08:27:23;;;;;;;39.05;21.70;;;3.30;99.90;;;;;;2603469;54;20577;31
2022/01/14 08:29:58;;;;;;;41.20;22.27;;;3.40;99.90;;;;;;2622013;46;20085;31
2022/01/14 08:32:38;;;;;;;39.00;23.08;;;3.40;99.90;;;;;;2622075;46;20030;31
2022/01/14 08:35:15;;;;;;;42.33;21.47;;;3.40;99.90;;;;;;2603360;54;20889;31
2022/01/14 08:37:51;;;;;;;39.22;21.35;;;3.40;99.90;;;;;;2602760;54;20030;31
2022/01/14 08:40:26;;;;;;;39.00;21.25;;;3.40;99.90;;;;;;2602525;54;20027;31
2022/01/14 08:43:08;;;;;;;39.20;21.58;;;3.40;99.90;;;;;;2603453;54;20925;31
2022/01/14 08:45:48;;;;;;;38.17;20.15;;;3.40;99.90;;;;;;2701461;39;21460;31
2022/01/14 08:48:27;;;;;;;32.00;16.77;;;3.50;99.90;;;;;;2603185;54;20027;31
2022/01/14 08:51:06;;;;;;;37.58;19.23;;;3.50;99.90;;;;;;2603399;54;20814;31
2022/01/14 08:53:41;;;;;;;38.10;19.42;;;3.40;99.90;;;;;;2603300;54;20926;31
2022/01/14 08:56:26;;;;;;;34.83;19.30;;;3.50;99.90;;;;;;2603330;54;20038;31
2022/01/14 08:59:04;;;;;;;36.53;17.87;;;3.50;99.90;;;;;;2603114;54;20935;31
2022/01/14 09:01:43;;;;;;;31.85;18.55;;;3.50;99.90;;;;;;2603515;54;20962;31
2022/01/14 09:07:08;;;;;;;40.47;19.30;;;3.50;99.90;;;;;;2603317;54;20859;31
2022/01/14 09:09:44;;;;;;;33.70;18.45;;;3.50;99.90;;;;;;2603364;54;20089;31
2022/01/14 09:12:19;;;;;;;33.42;18.65;;;3.50;99.90;;;;;;2603214;54;20029;31
2022/01/14 09:14:55;;;;;;;32.47;18.33;;;3.50;99.90;;;;;;2621990;46;20030;31
2022/01/14 09:17:32;;;;;;;30.92;15.75;;;3.60;99.90;;;;;;2602804;54;20113;31
2022/01/14 09:20:08;;;;;;;28.73;16.33;;;3.60;99.90;;;;;;2603211;54;20901;31
2022/01/14 09:22:51;;;;;;;30.90;17.45;;;3.60;99.90;;;;;;2603178;54;20112;31
2022/01/14 09:25:27;;;;;;;31.38;17.30;;;3.60;99.90;;;;;;2603254;54;20852;31
2022/01/14 09:28:02;;;;;;;27.20;14.15;;;3.60;99.90;;;;;;2773139;31;20545;31
2022/01/14 09:30:39;;;;;;;32.55;16.20;;;3.60;99.90;;;;;;2602711;54;20771;31
2022/01/14 09:33:18;;;;;;;40.03;19.13;;;3.60;99.90;;;;;;2603350;54;20108;31
2022/01/14 09:35:56;;;;;;;34.47;18.13;;;3.60;99.90;;;;;;2603453;54;20844;31
2022/01/14 09:38:51;;;;;;;31.45;18.52;;;3.60;99.90;;;;;;2602996;54;20343;31
2022/01/14 09:41:32;;;;;;;31.02;18.02;;;3.70;99.90;;;;;;2773183;31;20615;31
2022/01/14 09:44:06;;;;;;;33.75;18.05;;;3.70;99.90;;;;;;2603235;54;20026;31
2022/01/14 09:46:44;;;;;;;32.72;17.98;;;3.70;99.90;;;;;;2602906;54;20042;31
2022/01/14 09:49:22;;;;;;;27.20;15.30;;;3.70;99.90;;;;;;2603087;54;20023;31
2022/01/14 09:52:00;;;;;;;34.53;18.58;;;3.70;99.90;;;;;;2621740;46;20037;31
2022/01/14 09:54:38;;;;;;;32.70;18.30;;;3.70;99.90;;;;;;2621600;46;20037;31
2022/01/14 09:57:13;;;;;;;40.15;19.02;;;3.70;99.90;;;;;;2621582;46;20027;31
2022/01/14 09:59:52;;;;;;;30.80;17.33;;;3.70;99.90;;;;;;2621674;46;20042;31
2022/01/14 10:02:34;;;;;;;37.43;19.53;;;3.70;99.90;;;;;;2602666;54;20895;31
2022/01/14 10:05:12;;;;;;;31.30;17.08;;;3.70;99.90;;;;;;2603176;54;20140;31
2022/01/14 10:07:48;;;;;;;32.45;18.02;;;3.70;99.90;;;;;;2621431;46;20053;31
2022/01/14 10:10:31;;;;;;;29.97;19.07;;;3.70;99.90;;;;;;2621332;46;20085;31
2022/01/14 10:13:14;;;;;;;35.28;18.48;;;3.70;99.90;;;;;;2764275;31;20030;31
2022/01/14 10:15:50;;;;;;;36.58;19.20;;;3.70;99.90;;;;;;2603206;54;20897;31
2022/01/14 10:18:25;;;;;;;31.37;17.60;;;3.70;99.90;;;;;;2603015;54;20990;31
2022/01/14 10:21:03;;;;;;;30.47;18.67;;;3.70;99.90;;;;;;2603016;54;20235;31
2022/01/14 10:23:42;;;;;;;29.05;18.08;;;3.70;99.90;;;;;;2603233;54;20030;31
2022/01/14 10:26:26;;;;;;;35.43;18.80;;;3.70;99.90;;;;;;2603031;54;20857;31
2022/01/14 10:29:05;;;;;;;29.45;16.65;;;3.70;99.90;;;;;;2602884;54;20257;31
2022/01/14 10:31:42;;;;;;;32.63;19.00;;;3.70;99.90;;;;;;2602839;54;20132;31
2022/01/14 10:34:18;;;;;;;;;;;3.70;99.90;;;;;;2603411;54;20037;31
2022/01/14 10:37:11;;;;;;;26.00;15.10;;;3.70;99.90;;;;;;2603287;54;19934;31
2022/01/14 10:39:48;;;;;;;33.05;17.88;;;3.60;99.90;;;;;;2621621;47;20030;31
2022/01/14 10:42:30;;;;;;;30.88;17.67;;;3.60;99.90;;;;;;2603382;54;20837;31
2022/01/14 10:45:22;;;;;;;29.77;16.90;;;3.60;99.90;;;;;;2622720;46;20030;31
2022/01/14 10:50:37;;;;;;;29.60;19.25;;;3.60;99.90;;;;;;2603725;54;20854;31
2022/01/14 10:53:14;;;;;;;27.65;17.75;;;3.60;99.90;;;;;;2603642;54;20042;31
2022/01/14 10:55:52;;;;;;;31.23;17.90;;;3.60;99.90;;;;;;2603930;54;20856;31
2022/01/14 10:58:26;;;;;;;30.95;18.50;;;3.60;99.90;;;;;;2622269;46;20785;31
2022/01/14 11:01:05;;;;;;;29.70;16.67;;;3.70;99.90;;;;;;2603839;54;20856;31
2022/01/14 11:03:40;;;;;;;32.10;17.90;;;3.70;99.90;;;;;;2603683;54;20259;31
2022/01/14 11:06:28;;;;;;;31.80;18.23;;;3.70;99.90;;;;;;2603762;54;20085;31
2022/01/14 11:09:04;;;;;;;27.60;16.40;;;3.70;99.90;;;;;;2622041;46;20030;31
2022/01/14 11:11:44;;;;;;;33.25;18.75;;;3.70;99.90;;;;;;2603438;54;20022;31
2022/01/14 11:14:19;;;;;;;30.67;18.67;;;3.70;99.90;;;;;;2603855;54;20031;31
2022/01/14 11:16:58;;;;;;;;;;;3.70;99.90;;;;;;2604031;54;20026;31
2022/01/14 11:19:33;;;;;;;30.15;17.23;;;3.70;99.90;;;;;;2603477;54;19961;31
2022/01/14 11:27:28;;;;;;;32.33;18.48;;;3.70;99.90;;;;;;2603755;54;20102;31
2022/01/14 11:30:04;;;;;;;;;;;3.70;99.90;;;;;;2603854;54;20053;31
2022/01/14 11:33:02;;;;;;;35.13;18.48;;;3.70;99.90;;;;;;2603601;54;20724;31
2022/01/14 11:35:41;;;;;;;28.77;17.25;;;3.70;99.90;;;;;;2603603;54;20034;31
2022/01/14 11:38:38;;;;;;;30.83;16.48;;;3.70;99.90;;;;;;2603738;54;20034;31
2022/01/14 11:41:17;;;;;;;32.20;18.30;;;3.70;99.90;;;;;;2603786;54;20022;31
2022/01/14 11:43:57;;;;;;;37.20;19.88;;;3.70;99.90;;;;;;2603189;54;20594;31
2022/01/14 11:46:47;;;;;;;39.55;20.63;;;3.70;99.90;;;;;;2603350;54;20033;31
2022/01/14 11:49:22;;;;;;;37.80;19.33;;;3.80;99.90;;;;;;2603703;54;20922;31
2022/01/14 11:52:01;;;;;;;;;;;3.70;99.90;;;;;;2603579;54;20280;31
2022/01/14 11:54:45;;;;;;;38.35;19.65;;;3.70;99.90;;;;;;2621851;46;20025;31
2022/01/14 11:58:06;;;;;;;40.50;22.38;;;3.70;99.90;;;;;;2603491;54;20752;31
2022/01/14 12:00:46;;;;;;;30.27;15.57;;;3.70;99.90;;;;;;2606578;46;20030;31
2022/01/14 12:03:34;;;;;;;36.22;18.10;;;3.60;99.90;;;;;;2603560;54;20931;31
2022/01/14 12:06:10;;;;;;;36.65;17.45;;;3.60;99.90;;;;;;2603881;54;20033;31
2022/01/14 12:08:48;;;;;;;;;;;3.60;99.90;;;;;;2622103;46;20050;31
2022/01/14 12:11:24;;;;;;;34.73;18.80;;;3.50;99.90;;;;;;2621830;46;20749;31
2022/01/14 12:14:04;;;;;;;38.25;20.55;;;3.50;99.90;;;;;;2622234;46;20247;31
2022/01/14 12:17:00;;;;;;;35.97;19.00;;;3.50;99.90;;;;;;2603361;54;20852;31
2022/01/14 12:19:38;;;;;;;36.63;20.25;;;3.50;99.90;;;;;;2603683;54;20067;31
2022/01/14 12:22:14;;;;;;;35.58;20.42;;;3.50;99.90;;;;;;2603367;54;20053;31
2022/01/14 12:25:00;;;;;;;33.65;18.70;;;3.50;99.90;;;;;;2603306;54;20814;31
2022/01/14 12:27:45;;;;;;;34.42;19.63;;;3.50;99.90;;;;;;2701858;39;20474;31
2022/01/14 12:30:22;;;;;;;36.77;19.53;;;3.50;99.90;;;;;;2603399;54;20154;31
2022/01/14 12:33:00;;;;;;;37.30;21.13;;;3.50;99.90;;;;;;2603499;54;20049;31
2022/01/14 12:35:37;;;;;;;32.97;19.20;;;3.50;99.90;;;;;;2720253;39;20493;31
2022/01/14 12:38:18;;;;;;;39.72;21.17;;;3.50;99.90;;;;;;2606034;46;20577;31
2022/01/14 12:40:57;;;;;;;40.80;22.38;;;3.50;99.90;;;;;;2621630;46;20771;31
2022/01/14 12:46:14;;;;;;;38.25;20.92;;;3.50;99.90;;;;;;2622082;46;20081;31
2022/01/14 12:48:56;;;;;;;43.17;23.35;;;3.50;99.90;;;;;;2603214;54;20031;31
2022/01/14 12:51:32;;;;;;;40.80;21.55;;;3.50;99.90;;;;;;2621830;46;20031;31
2022/01/14 12:54:12;;;;;;;34.00;20.05;;;3.50;99.90;;;;;;2604162;46;20899;31
2022/01/14 12:56:56;;;;;;;37.92;20.27;;;3.50;99.90;;;;;;2621696;46;20582;31
2022/01/14 12:59:32;;;;;;;34.67;19.63;;;3.50;99.90;;;;;;2603297;54;20042;31
2022/01/14 13:02:08;;;;;;;38.40;20.55;;;3.50;99.90;;;;;;2603445;54;20165;31
2022/01/14 13:04:43;;;;;;;39.95;21.80;;;3.50;99.90;;;;;;2602931;54;20169;31
2022/01/14 13:07:20;;;;;;;42.72;22.20;;;3.50;99.90;;;;;;2621982;46;20030;31
2022/01/14 13:09:55;;;;;;;;;;;3.50;99.90;;;;;;2603378;54;20800;31
2022/01/14 13:12:39;;;;;;;41.55;21.30;;;3.40;99.90;;;;;;2602590;54;19972;31
2022/01/14 13:15:17;;;;;;;36.40;20.73;;;3.50;99.90;;;;;;2621968;46;20856;31
2022/01/14 13:17:59;;;;;;;36.97;20.88;;;3.50;99.90;;;;;;2603175;54;20806;31
2022/01/14 13:20:33;;;;;;;36.50;20.20;;;3.50;99.90;;;;;;2603132;54;20030;31
2022/01/14 13:23:09;;;;;;;27.02;13.43;;;3.50;99.90;;;;;;2603514;54;20030;31
2022/01/14 13:25:42;;;;;;;;;;;3.50;99.90;;;;;;2603482;54;20061;31
2022/01/14 13:28:20;;;;;;;33.45;18.65;;;3.50;99.90;;;;;;2622090;46;19947;31
2022/01/14 13:30:57;;;;;;;32.33;18.45;;;3.50;99.90;;;;;;2603382;54;20037;31
2022/01/14 13:33:32;;;;;;;40.03;20.30;;;3.50;99.90;;;;;;2621820;46;20665;31
2022/01/14 13:36:11;;;;;;;38.90;21.10;;;3.50;99.90;;;;;;2603335;54;20042;31
2022/01/14 13:39:10;;;;;;;38.72;21.08;;;3.50;99.90;;;;;;2603339;54;20820;31
2022/01/14 13:44:37;;;;;;;33.70;19.05;;;3.50;99.90;;;;;;2602999;54;20249;31
2022/01/14 13:49:48;;;;;;;35.53;17.95;;;3.50;99.90;;;;;;2603283;54;20087;31
2022/01/14 13:52:24;;;;;;;34.30;18.30;;;3.40;99.90;;;;;;2603268;54;20031;31
2022/01/14 13:55:01;;;;;;;32.97;18.25;;;3.40;99.90;;;;;;2602834;54;20273;31
2022/01/14 13:57:42;;;;;;;36.70;20.75;;;3.40;99.90;;;;;;2603168;54;20093;31
2022/01/14 14:00:22;;;;;;;44.60;21.70;;;3.40;99.90;;;;;;2603083;54;20037;31
2022/01/14 14:02:59;;;;;;;38.97;19.85;;;3.40;99.90;;;;;;2603213;54;21163;31
2022/01/14 14:05:40;;;;;;;35.20;19.50;;;3.40;99.90;;;;;;2602360;54;20053;31
2022/01/14 14:08:34;;;;;;;38.22;19.00;;;3.50;99.90;;;;;;2603121;54;20034;31
2022/01/14 14:16:53;;;;;;;40.10;19.52;;;3.50;99.90;;;;;;2603033;54;20851;31
2022/01/14 14:19:44;;;;;;;36.38;20.48;;;3.50;99.90;;;;;;2602930;54;20033;31
2022/01/14 14:22:22;;;;;;;37.70;19.88;;;3.40;99.90;;;;;;2603255;54;20026;31
2022/01/14 14:25:05;;;;;;;43.75;20.30;;;3.40;99.90;;;;;;2602922;54;20042;31
2022/01/14 14:27:45;;;;;;;45.60;20.40;;;3.50;99.90;;;;;;2603056;54;20879;31
2022/01/14 14:30:24;;;;;;;38.83;20.88;;;3.50;99.90;;;;;;2602965;54;20027;31
2022/01/14 14:32:59;;;;;;;38.70;18.27;;;3.50;99.90;;;;;;2602865;54;20889;31
2022/01/14 14:35:39;;;;;;;36.80;19.90;;;3.50;99.90;;;;;;2603199;54;20055;31